Sutton, NE (68979)

1:43 AM CST on December 26, 2014 (GMT -0600)
Buller Spraying, inc. | Change Station
CLOSE
Current Station
Personal Weather Station
Location: Henderson, NE
Elevation: 1785 ft
Nearby Weather Stations

Elev 1785 ft 40.70 °N, 97.90 °W | Updated 3 minutes ago

Mostly Cloudy
Mostly Cloudy
32.0 °F
Feels Like 24 °F
N
9.0
Wind Variable Wind from North
Gusts 17.0 mph

Today
High -- | Low -- °F
--% Chance of Precip.
Yesterday
High -- | Low -- °F
Precip. -- in
7:53 AM 5:10 PM
Waxing Crescent, 23% visible
Pressure 29.81 in
Visibility 5.0 miles
Clouds Overcast 500 ft
Windchill 24 °F
Dew Point 30 °F
Humidity 92%
Rainfall 0.00 in
Snow Depth Not available.
UV 0 out of 12
Pollen .10 out of 12
Air Quality Not available.
Flu Activity Not available.
METAR KAUH 260735Z AUTO 36015G25KT 5SM BR OVC005 00/M01 A2981 RMK AO2 T10031007

More Conditions Fewer Conditions

Pressure 29.81 in
Visibility 5.0 miles
Clouds Overcast 500 ft
Windchill 24 °F
Dew Point 30 °F
Humidity 92%
Rainfall 0.00 in
Snow Depth Not available.
UV 0 out of 12
Pollen .10 out of 12
Air Quality Not available.
Flu Activity Not available.
METAR KAUH 260735Z AUTO 36015G25KT 5SM BR OVC005 00/M01 A2981 RMK AO2 T10031007

More Conditions Fewer Conditions

10-Day Weather Forecast

Almanac

Astronomy

Dec. 26, 2014 Rise Set
Actual Time
Civil Twilight
Nautical Twilight
Astronomical Twilight
Moon
Length of Visible Light
Length of Day
Tomorrow will be .
, % of the Moon is Illuminated

Today's Extremes

State Highs State Lows

Community

WunderPhotos

Upload Photos

1,780,571 photos uploaded!

WunderBlogs® & News

Nearby

Air Quality

  Air Quality AQ Index Pollutant
Not available.

Snow Depth

Station Depth Elevation

Earthquake Activity

City Distance Mag. Time & Date
Minimum magnitude displayed is 2.5.

Coastal Water Temperatures

Place Temperature

Nearby Weather Stations